sensor_id;sensor_type;location;lat;lon;timestamp;temperature;humidity
79571;DHT22;69034;49.444;7.758;2023-05-01T00:02:49;15.00;43.20
79571;DHT22;69034;49.444;7.758;2023-05-01T00:06:49;15.00;43.20
79571;DHT22;69034;49.444;7.758;2023-05-01T00:10:51;14.90;43.20
79571;DHT22;69034;49.444;7.758;2023-05-01T00:14:55;14.90;43.30
79571;DHT22;69034;49.444;7.758;2023-05-01T00:18:56;14.80;43.40
79571;DHT22;69034;49.444;7.758;2023-05-01T00:22:58;14.70;43.50
79571;DHT22;69034;49.444;7.758;2023-05-01T00:26:59;14.70;43.70
79571;DHT22;69034;49.444;7.758;2023-05-01T00:30:59;14.60;43.80
79571;DHT22;69034;49.444;7.758;2023-05-01T00:35:01;14.60;44.00
79571;DHT22;69034;49.444;7.758;2023-05-01T00:39:02;14.50;44.00
79571;DHT22;69034;49.444;7.758;2023-05-01T00:43:03;14.50;44.50
79571;DHT22;69034;49.444;7.758;2023-05-01T00:47:03;14.60;44.60
79571;DHT22;69034;49.444;7.758;2023-05-01T00:51:06;14.60;44.50
79571;DHT22;69034;49.444;7.758;2023-05-01T00:55:08;14.70;44.30
79571;DHT22;69034;49.444;7.758;2023-05-01T00:59:08;14.80;44.20
79571;DHT22;69034;49.444;7.758;2023-05-01T01:03:09;14.90;44.10
79571;DHT22;69034;49.444;7.758;2023-05-01T01:11:32;14.90;44.10
79571;DHT22;69034;49.444;7.758;2023-05-01T01:20:03;14.80;44.20
79571;DHT22;69034;49.444;7.758;2023-05-01T01:37:11;14.30;45.20
79571;DHT22;69034;49.444;7.758;2023-05-01T01:41:19;14.20;45.20
79571;DHT22;69034;49.444;7.758;2023-05-01T01:45:36;14.10;45.20
79571;DHT22;69034;49.444;7.758;2023-05-01T01:49:43;14.00;45.20
79571;DHT22;69034;49.444;7.758;2023-05-01T01:53:51;14.00;45.40
79571;DHT22;69034;49.444;7.758;2023-05-01T01:57:53;13.90;45.60
79571;DHT22;69034;49.444;7.758;2023-05-01T02:01:55;13.80;45.60
79571;DHT22;69034;49.444;7.758;2023-05-01T02:05:57;13.80;45.60
79571;DHT22;69034;49.444;7.758;2023-05-01T02:10:00;13.70;45.70
79571;DHT22;69034;49.444;7.758;2023-05-01T02:14:02;13.70;45.70
79571;DHT22;69034;49.444;7.758;2023-05-01T02:18:04;13.60;45.90
79571;DHT22;69034;49.444;7.758;2023-05-01T02:22:11;13.60;46.00
79571;DHT22;69034;49.444;7.758;2023-05-01T02:26:15;13.50;46.10
79571;DHT22;69034;49.444;7.758;2023-05-01T02:30:17;13.50;46.30
79571;DHT22;69034;49.444;7.758;2023-05-01T02:34:18;13.40;46.30
79571;DHT22;69034;49.444;7.758;2023-05-01T02:38:18;13.40;46.30
79571;DHT22;69034;49.444;7.758;2023-05-01T02:42:21;13.30;46.50
79571;DHT22;69034;49.444;7.758;2023-05-01T02:46:24;13.30;46.50
79571;DHT22;69034;49.444;7.758;2023-05-01T02:50:27;13.30;46.50
79571;DHT22;69034;49.444;7.758;2023-05-01T02:54:28;13.20;46.60
79571;DHT22;69034;49.444;7.758;2023-05-01T02:58:30;13.20;46.70
79571;DHT22;69034;49.444;7.758;2023-05-01T03:02:31;13.20;46.70
79571;DHT22;69034;49.444;7.758;2023-05-01T03:06:32;13.10;46.90
79571;DHT22;69034;49.444;7.758;2023-05-01T03:10:33;13.10;46.90
79571;DHT22;69034;49.444;7.758;2023-05-01T03:14:34;13.10;47.10
79571;DHT22;69034;49.444;7.758;2023-05-01T03:18:34;13.00;47.10
79571;DHT22;69034;49.444;7.758;2023-05-01T03:22:35;13.00;47.40
79571;DHT22;69034;49.444;7.758;2023-05-01T03:26:36;13.10;47.60
79571;DHT22;69034;49.444;7.758;2023-05-01T03:30:37;13.20;47.50
79571;DHT22;69034;49.444;7.758;2023-05-01T03:34:37;13.30;47.20
79571;DHT22;69034;49.444;7.758;2023-05-01T03:38:38;13.40;47.00
79571;DHT22;69034;49.444;7.758;2023-05-01T03:42:39;13.50;46.90
79571;DHT22;69034;49.444;7.758;2023-05-01T03:46:39;13.50;46.90
79571;DHT22;69034;49.444;7.758;2023-05-01T03:50:40;13.50;46.90
79571;DHT22;69034;49.444;7.758;2023-05-01T03:54:41;13.50;47.00
79571;DHT22;69034;49.444;7.758;2023-05-01T03:58:42;13.50;47.00
79571;DHT22;69034;49.444;7.758;2023-05-01T04:02:43;13.40;47.10
79571;DHT22;69034;49.444;7.758;2023-05-01T04:06:43;13.30;47.20
79571;DHT22;69034;49.444;7.758;2023-05-01T04:10:44;13.30;47.20
79571;DHT22;69034;49.444;7.758;2023-05-01T04:14:44;13.20;47.10
79571;DHT22;69034;49.444;7.758;2023-05-01T04:18:46;13.20;47.00
79571;DHT22;69034;49.444;7.758;2023-05-01T04:22:47;13.20;47.00
79571;DHT22;69034;49.444;7.758;2023-05-01T04:26:47;13.20;47.20
79571;DHT22;69034;49.444;7.758;2023-05-01T04:30:49;13.20;47.30
79571;DHT22;69034;49.444;7.758;2023-05-01T04:34:50;13.20;47.30
79571;DHT22;69034;49.444;7.758;2023-05-01T04:38:51;13.20;47.40
79571;DHT22;69034;49.444;7.758;2023-05-01T04:42:51;13.20;47.40
79571;DHT22;69034;49.444;7.758;2023-05-01T04:46:52;13.30;47.40
79571;DHT22;69034;49.444;7.758;2023-05-01T04:50:52;13.30;47.40
79571;DHT22;69034;49.444;7.758;2023-05-01T04:54:54;13.40;47.30
79571;DHT22;69034;49.444;7.758;2023-05-01T04:58:57;13.50;47.10
79571;DHT22;69034;49.444;7.758;2023-05-01T05:02:57;13.60;47.00
79571;DHT22;69034;49.444;7.758;2023-05-01T05:06:58;13.70;47.00
79571;DHT22;69034;49.444;7.758;2023-05-01T05:10:59;13.80;46.90
79571;DHT22;69034;49.444;7.758;2023-05-01T05:15:00;13.90;46.90
79571;DHT22;69034;49.444;7.758;2023-05-01T05:19:01;14.00;46.90
79571;DHT22;69034;49.444;7.758;2023-05-01T05:23:01;14.10;47.00
79571;DHT22;69034;49.444;7.758;2023-05-01T05:27:02;14.20;47.00
79571;DHT22;69034;49.444;7.758;2023-05-01T05:31:03;14.30;46.90
79571;DHT22;69034;49.444;7.758;2023-05-01T05:35:04;14.40;47.00
79571;DHT22;69034;49.444;7.758;2023-05-01T05:39:05;14.50;46.80
79571;DHT22;69034;49.444;7.758;2023-05-01T05:43:06;14.60;46.70
79571;DHT22;69034;49.444;7.758;2023-05-01T05:47:07;14.80;46.40
79571;DHT22;69034;49.444;7.758;2023-05-01T05:51:08;15.00;46.30
79571;DHT22;69034;49.444;7.758;2023-05-01T05:55:09;15.10;46.10
79571;DHT22;69034;49.444;7.758;2023-05-01T05:59:09;15.30;46.00
79571;DHT22;69034;49.444;7.758;2023-05-01T06:03:10;15.60;45.70
79571;DHT22;69034;49.444;7.758;2023-05-01T06:07:11;15.90;45.40
79571;DHT22;69034;49.444;7.758;2023-05-01T06:11:11;16.20;45.30
79571;DHT22;69034;49.444;7.758;2023-05-01T06:15:12;16.70;45.00
79571;DHT22;69034;49.444;7.758;2023-05-01T06:19:16;17.00;44.80
79571;DHT22;69034;49.444;7.758;2023-05-01T06:23:17;17.30;44.60
79571;DHT22;69034;49.444;7.758;2023-05-01T06:27:18;17.40;44.50
79571;DHT22;69034;49.444;7.758;2023-05-01T06:31:19;17.50;44.60
79571;DHT22;69034;49.444;7.758;2023-05-01T06:35:19;17.60;44.60
79571;DHT22;69034;49.444;7.758;2023-05-01T06:39:20;17.70;44.40
79571;DHT22;69034;49.444;7.758;2023-05-01T06:43:21;17.90;44.20
79571;DHT22;69034;49.444;7.758;2023-05-01T06:47:21;18.20;44.00
79571;DHT22;69034;49.444;7.758;2023-05-01T06:51:22;18.50;43.60
79571;DHT22;69034;49.444;7.758;2023-05-01T06:55:23;18.80;43.30
79571;DHT22;69034;49.444;7.758;2023-05-01T06:59:23;19.10;43.10
79571;DHT22;69034;49.444;7.758;2023-05-01T07:03:24;19.40;43.00
79571;DHT22;69034;49.444;7.758;2023-05-01T07:07:27;19.50;43.00
79571;DHT22;69034;49.444;7.758;2023-05-01T07:11:27;19.60;43.00
79571;DHT22;69034;49.444;7.758;2023-05-01T07:15:28;19.90;42.60
79571;DHT22;69034;49.444;7.758;2023-05-01T07:19:29;20.10;42.30
79571;DHT22;69034;49.444;7.758;2023-05-01T07:23:29;20.40;42.80
79571;DHT22;69034;49.444;7.758;2023-05-01T07:27:30;21.00;42.60
79571;DHT22;69034;49.444;7.758;2023-05-01T07:31:31;21.40;42.50
79571;DHT22;69034;49.444;7.758;2023-05-01T07:35:31;21.60;42.10
79571;DHT22;69034;49.444;7.758;2023-05-01T07:39:32;21.80;41.80
79571;DHT22;69034;49.444;7.758;2023-05-01T07:43:32;21.90;41.40
79571;DHT22;69034;49.444;7.758;2023-05-01T07:47:34;22.10;41.10
79571;DHT22;69034;49.444;7.758;2023-05-01T07:51:34;22.30;40.70
79571;DHT22;69034;49.444;7.758;2023-05-01T07:55:35;22.40;40.30
79571;DHT22;69034;49.444;7.758;2023-05-01T07:59:37;22.60;39.80
79571;DHT22;69034;49.444;7.758;2023-05-01T08:03:37;22.80;39.40
79571;DHT22;69034;49.444;7.758;2023-05-01T08:07:38;22.90;39.20
79571;DHT22;69034;49.444;7.758;2023-05-01T08:11:39;23.10;39.00
79571;DHT22;69034;49.444;7.758;2023-05-01T08:15:40;23.30;38.90
79571;DHT22;69034;49.444;7.758;2023-05-01T08:19:42;23.50;38.70
79571;DHT22;69034;49.444;7.758;2023-05-01T08:23:42;23.80;38.20
79571;DHT22;69034;49.444;7.758;2023-05-01T08:27:44;24.10;37.70
79571;DHT22;69034;49.444;7.758;2023-05-01T08:31:45;24.30;37.40
79571;DHT22;69034;49.444;7.758;2023-05-01T08:35:45;24.50;36.90
79571;DHT22;69034;49.444;7.758;2023-05-01T08:39:48;24.60;36.60
79571;DHT22;69034;49.444;7.758;2023-05-01T08:43:50;24.70;36.40
79571;DHT22;69034;49.444;7.758;2023-05-01T08:47:51;24.90;35.90
79571;DHT22;69034;49.444;7.758;2023-05-01T08:51:54;25.00;35.60
79571;DHT22;69034;49.444;7.758;2023-05-01T08:55:57;25.10;35.30
79571;DHT22;69034;49.444;7.758;2023-05-01T08:59:58;25.30;34.90
79571;DHT22;69034;49.444;7.758;2023-05-01T09:04:01;25.60;34.40
79571;DHT22;69034;49.444;7.758;2023-05-01T09:08:02;25.90;34.30
79571;DHT22;69034;49.444;7.758;2023-05-01T09:12:26;26.20;33.80
79571;DHT22;69034;49.444;7.758;2023-05-01T09:16:28;26.50;33.80
79571;DHT22;69034;49.444;7.758;2023-05-01T09:20:29;26.70;33.20
79571;DHT22;69034;49.444;7.758;2023-05-01T09:24:31;26.80;33.30
79571;DHT22;69034;49.444;7.758;2023-05-01T09:32:42;27.70;31.90
79571;DHT22;69034;49.444;7.758;2023-05-01T09:36:44;27.90;31.50
79571;DHT22;69034;49.444;7.758;2023-05-01T09:40:47;28.10;31.00
79571;DHT22;69034;49.444;7.758;2023-05-01T09:44:49;28.60;30.80
79571;DHT22;69034;49.444;7.758;2023-05-01T09:48:58;28.90;29.90
79571;DHT22;69034;49.444;7.758;2023-05-01T09:53:03;28.70;29.50
79571;DHT22;69034;49.444;7.758;2023-05-01T09:57:06;28.80;29.20
79571;DHT22;69034;49.444;7.758;2023-05-01T10:01:06;29.10;29.40
79571;DHT22;69034;49.444;7.758;2023-05-01T10:05:11;29.70;28.50
79571;DHT22;69034;49.444;7.758;2023-05-01T10:09:26;29.30;27.70
79571;DHT22;69034;49.444;7.758;2023-05-01T10:13:30;29.30;28.00
79571;DHT22;69034;49.444;7.758;2023-05-01T10:17:32;29.60;27.70
79571;DHT22;69034;49.444;7.758;2023-05-01T10:21:33;30.10;27.40
79571;DHT22;69034;49.444;7.758;2023-05-01T10:25:35;30.20;26.80
79571;DHT22;69034;49.444;7.758;2023-05-01T10:29:36;30.30;26.60
79571;DHT22;69034;49.444;7.758;2023-05-01T10:33:39;30.70;26.30
79571;DHT22;69034;49.444;7.758;2023-05-01T10:37:47;30.90;26.40
79571;DHT22;69034;49.444;7.758;2023-05-01T10:50:12;31.50;25.50
79571;DHT22;69034;49.444;7.758;2023-05-01T11:02:37;29.50;26.40
79571;DHT22;69034;49.444;7.758;2023-05-01T11:15:31;28.40;27.40
79571;DHT22;69034;49.444;7.758;2023-05-01T11:19:44;28.30;27.50
79571;DHT22;69034;49.444;7.758;2023-05-01T11:23:46;28.20;27.50
79571;DHT22;69034;49.444;7.758;2023-05-01T11:27:48;28.00;27.60
79571;DHT22;69034;49.444;7.758;2023-05-01T11:31:50;28.00;27.70
79571;DHT22;69034;49.444;7.758;2023-05-01T11:35:57;28.10;27.70
79571;DHT22;69034;49.444;7.758;2023-05-01T11:39:59;28.30;27.70
79571;DHT22;69034;49.444;7.758;2023-05-01T11:44:00;28.70;27.40
79571;DHT22;69034;49.444;7.758;2023-05-01T11:48:01;29.10;27.10
79571;DHT22;69034;49.444;7.758;2023-05-01T11:52:07;29.60;26.90
79571;DHT22;69034;49.444;7.758;2023-05-01T11:56:21;29.90;26.70
79571;DHT22;69034;49.444;7.758;2023-05-01T12:00:31;30.50;27.40
79571;DHT22;69034;49.444;7.758;2023-05-01T12:04:36;31.00;26.00
79571;DHT22;69034;49.444;7.758;2023-05-01T12:08:43;31.70;26.40
79571;DHT22;69034;49.444;7.758;2023-05-01T12:12:46;32.20;25.20
79571;DHT22;69034;49.444;7.758;2023-05-01T12:16:47;32.20;25.00
79571;DHT22;69034;49.444;7.758;2023-05-01T12:20:52;32.00;25.20
79571;DHT22;69034;49.444;7.758;2023-05-01T12:24:59;32.40;25.20
79571;DHT22;69034;49.444;7.758;2023-05-01T12:29:02;32.90;25.70
79571;DHT22;69034;49.444;7.758;2023-05-01T12:33:17;33.80;25.10
79571;DHT22;69034;49.444;7.758;2023-05-01T12:37:19;37.40;18.20
79571;DHT22;69034;49.444;7.758;2023-05-01T12:41:19;37.70;18.60
79571;DHT22;69034;49.444;7.758;2023-05-01T12:45:20;38.70;17.90
79571;DHT22;69034;49.444;7.758;2023-05-01T12:49:22;40.90;15.20
79571;DHT22;69034;49.444;7.758;2023-05-01T12:53:25;39.40;17.20
79571;DHT22;69034;49.444;7.758;2023-05-01T12:57:26;37.00;17.20
79571;DHT22;69034;49.444;7.758;2023-05-01T13:01:27;35.40;17.60
79571;DHT22;69034;49.444;7.758;2023-05-01T13:05:28;33.70;18.40
79571;DHT22;69034;49.444;7.758;2023-05-01T13:09:29;32.10;19.00
79571;DHT22;69034;49.444;7.758;2023-05-01T13:13:33;30.90;19.70
79571;DHT22;69034;49.444;7.758;2023-05-01T13:17:33;29.90;24.20
79571;DHT22;69034;49.444;7.758;2023-05-01T13:21:34;29.30;24.50
79571;DHT22;69034;49.444;7.758;2023-05-01T13:25:35;31.70;19.90
79571;DHT22;69034;49.444;7.758;2023-05-01T13:29:37;31.90;19.60
79571;DHT22;69034;49.444;7.758;2023-05-01T13:33:40;31.60;19.30
79571;DHT22;69034;49.444;7.758;2023-05-01T13:37:41;30.70;24.20
79571;DHT22;69034;49.444;7.758;2023-05-01T13:41:42;30.00;24.70
79571;DHT22;69034;49.444;7.758;2023-05-01T13:45:42;29.50;24.90
79571;DHT22;69034;49.444;7.758;2023-05-01T13:49:43;29.10;25.30
79571;DHT22;69034;49.444;7.758;2023-05-01T13:53:45;28.70;25.60
79571;DHT22;69034;49.444;7.758;2023-05-01T13:57:45;28.30;25.80
79571;DHT22;69034;49.444;7.758;2023-05-01T14:01:46;27.90;26.00
79571;DHT22;69034;49.444;7.758;2023-05-01T14:05:47;27.80;26.10
79571;DHT22;69034;49.444;7.758;2023-05-01T14:09:55;27.80;26.10
79571;DHT22;69034;49.444;7.758;2023-05-01T14:13:57;28.10;25.90
79571;DHT22;69034;49.444;7.758;2023-05-01T14:18:05;28.20;26.20
79571;DHT22;69034;49.444;7.758;2023-05-01T14:22:06;28.70;26.10
79571;DHT22;69034;49.444;7.758;2023-05-01T14:26:08;29.20;25.80
79571;DHT22;69034;49.444;7.758;2023-05-01T14:30:33;29.70;25.60
79571;DHT22;69034;49.444;7.758;2023-05-01T14:34:36;29.90;25.30
79571;DHT22;69034;49.444;7.758;2023-05-01T14:38:40;30.50;24.90
79571;DHT22;69034;49.444;7.758;2023-05-01T14:42:44;31.00;24.80
79571;DHT22;69034;49.444;7.758;2023-05-01T14:46:47;34.00;19.00
79571;DHT22;69034;49.444;7.758;2023-05-01T14:50:51;36.20;17.70
79571;DHT22;69034;49.444;7.758;2023-05-01T14:54:54;37.40;17.00
79571;DHT22;69034;49.444;7.758;2023-05-01T14:58:54;37.90;16.80
79571;DHT22;69034;49.444;7.758;2023-05-01T15:02:57;39.80;15.50
79571;DHT22;69034;49.444;7.758;2023-05-01T15:06:58;41.20;14.70
79571;DHT22;69034;49.444;7.758;2023-05-01T15:10:59;40.30;14.80
79571;DHT22;69034;49.444;7.758;2023-05-01T15:15:00;39.30;15.00
79571;DHT22;69034;49.444;7.758;2023-05-01T15:19:02;40.50;14.70
79571;DHT22;69034;49.444;7.758;2023-05-01T15:23:03;41.00;14.20
79571;DHT22;69034;49.444;7.758;2023-05-01T15:27:04;38.40;15.40
79571;DHT22;69034;49.444;7.758;2023-05-01T15:31:05;35.90;16.70
79571;DHT22;69034;49.444;7.758;2023-05-01T15:35:06;34.20;17.50
79571;DHT22;69034;49.444;7.758;2023-05-01T15:39:09;32.80;18.20
79571;DHT22;69034;49.444;7.758;2023-05-01T15:43:11;31.70;18.90
79571;DHT22;69034;49.444;7.758;2023-05-01T15:47:12;30.80;19.50
79571;DHT22;69034;49.444;7.758;2023-05-01T15:51:14;30.10;24.00
79571;DHT22;69034;49.444;7.758;2023-05-01T15:55:15;29.40;24.60
79571;DHT22;69034;49.444;7.758;2023-05-01T15:59:16;28.70;25.10
79571;DHT22;69034;49.444;7.758;2023-05-01T16:03:17;28.00;25.60
79571;DHT22;69034;49.444;7.758;2023-05-01T16:07:18;27.30;26.60
79571;DHT22;69034;49.444;7.758;2023-05-01T16:11:22;26.60;27.60
79571;DHT22;69034;49.444;7.758;2023-05-01T16:15:24;26.10;28.30
79571;DHT22;69034;49.444;7.758;2023-05-01T16:19:27;25.60;28.90
79571;DHT22;69034;49.444;7.758;2023-05-01T16:23:35;25.10;29.40
79571;DHT22;69034;49.444;7.758;2023-05-01T16:27:41;24.70;29.80
79571;DHT22;69034;49.444;7.758;2023-05-01T16:31:43;24.70;30.00
79571;DHT22;69034;49.444;7.758;2023-05-01T16:35:47;24.90;29.90
79571;DHT22;69034;49.444;7.758;2023-05-01T16:39:48;25.00;30.30
79571;DHT22;69034;49.444;7.758;2023-05-01T16:43:49;24.90;30.30
79571;DHT22;69034;49.444;7.758;2023-05-01T16:47:50;24.60;30.80
79571;DHT22;69034;49.444;7.758;2023-05-01T16:51:52;24.40;31.50
79571;DHT22;69034;49.444;7.758;2023-05-01T16:55:57;24.20;31.60
79571;DHT22;69034;49.444;7.758;2023-05-01T16:59:57;23.90;32.20
79571;DHT22;69034;49.444;7.758;2023-05-01T17:03:58;23.70;32.40
79571;DHT22;69034;49.444;7.758;2023-05-01T17:07:59;23.50;32.90
79571;DHT22;69034;49.444;7.758;2023-05-01T17:11:59;23.40;33.50
79571;DHT22;69034;49.444;7.758;2023-05-01T17:16:00;23.50;33.70
79571;DHT22;69034;49.444;7.758;2023-05-01T17:20:03;23.50;34.50
79571;DHT22;69034;49.444;7.758;2023-05-01T17:24:04;23.30;34.90
79571;DHT22;69034;49.444;7.758;2023-05-01T17:28:05;22.90;35.50
79571;DHT22;69034;49.444;7.758;2023-05-01T17:32:06;22.50;37.00
79571;DHT22;69034;49.444;7.758;2023-05-01T17:36:07;22.00;37.90
79571;DHT22;69034;49.444;7.758;2023-05-01T17:40:08;21.70;38.30
79571;DHT22;69034;49.444;7.758;2023-05-01T17:44:13;21.50;39.00
79571;DHT22;69034;49.444;7.758;2023-05-01T17:48:13;21.30;40.20
79571;DHT22;69034;49.444;7.758;2023-05-01T17:52:14;21.00;41.00
79571;DHT22;69034;49.444;7.758;2023-05-01T17:56:15;20.70;41.10
79571;DHT22;69034;49.444;7.758;2023-05-01T18:00:17;20.50;41.00
79571;DHT22;69034;49.444;7.758;2023-05-01T18:04:18;20.30;41.20
79571;DHT22;69034;49.444;7.758;2023-05-01T18:08:19;20.10;41.30
79571;DHT22;69034;49.444;7.758;2023-05-01T18:12:20;19.90;41.30
79571;DHT22;69034;49.444;7.758;2023-05-01T18:16:20;19.80;41.50
79571;DHT22;69034;49.444;7.758;2023-05-01T18:20:22;19.60;41.60
79571;DHT22;69034;49.444;7.758;2023-05-01T18:24:23;19.50;41.70
79571;DHT22;69034;49.444;7.758;2023-05-01T18:28:24;19.30;41.80
79571;DHT22;69034;49.444;7.758;2023-05-01T18:32:26;19.20;41.90
79571;DHT22;69034;49.444;7.758;2023-05-01T18:36:27;19.10;42.10
79571;DHT22;69034;49.444;7.758;2023-05-01T18:40:27;18.90;42.20
79571;DHT22;69034;49.444;7.758;2023-05-01T18:44:28;18.80;42.30
79571;DHT22;69034;49.444;7.758;2023-05-01T18:48:29;18.70;42.50
79571;DHT22;69034;49.444;7.758;2023-05-01T18:52:30;18.60;42.70
79571;DHT22;69034;49.444;7.758;2023-05-01T18:56:31;18.40;42.90
79571;DHT22;69034;49.444;7.758;2023-05-01T19:00:31;18.40;43.00
79571;DHT22;69034;49.444;7.758;2023-05-01T19:04:39;18.30;43.20
79571;DHT22;69034;49.444;7.758;2023-05-01T19:08:40;18.20;43.50
79571;DHT22;69034;49.444;7.758;2023-05-01T19:12:41;18.10;43.60
79571;DHT22;69034;49.444;7.758;2023-05-01T19:16:41;18.10;44.40
79571;DHT22;69034;49.444;7.758;2023-05-01T19:20:42;18.30;44.20
79571;DHT22;69034;49.444;7.758;2023-05-01T19:24:43;18.40;44.10
79571;DHT22;69034;49.444;7.758;2023-05-01T19:28:43;18.40;44.10
79571;DHT22;69034;49.444;7.758;2023-05-01T19:32:44;18.50;44.20
79571;DHT22;69034;49.444;7.758;2023-05-01T19:36:45;18.40;44.10
79571;DHT22;69034;49.444;7.758;2023-05-01T19:40:47;18.40;44.20
79571;DHT22;69034;49.444;7.758;2023-05-01T19:44:49;18.40;44.40
79571;DHT22;69034;49.444;7.758;2023-05-01T19:48:50;18.40;44.50
79571;DHT22;69034;49.444;7.758;2023-05-01T19:52:51;18.40;44.40
79571;DHT22;69034;49.444;7.758;2023-05-01T19:56:52;18.30;44.70
79571;DHT22;69034;49.444;7.758;2023-05-01T20:00:53;18.10;44.90
79571;DHT22;69034;49.444;7.758;2023-05-01T20:04:58;18.00;45.20
79571;DHT22;69034;49.444;7.758;2023-05-01T20:08:59;17.80;45.60
79571;DHT22;69034;49.444;7.758;2023-05-01T20:12:59;17.70;45.70
79571;DHT22;69034;49.444;7.758;2023-05-01T20:17:00;17.60;45.70
79571;DHT22;69034;49.444;7.758;2023-05-01T20:21:01;17.50;45.80
79571;DHT22;69034;49.444;7.758;2023-05-01T20:25:02;17.40;46.10
79571;DHT22;69034;49.444;7.758;2023-05-01T20:29:02;17.30;46.30
79571;DHT22;69034;49.444;7.758;2023-05-01T20:33:03;17.20;46.30
79571;DHT22;69034;49.444;7.758;2023-05-01T20:37:07;17.20;46.50
79571;DHT22;69034;49.444;7.758;2023-05-01T20:41:08;17.10;46.70
79571;DHT22;69034;49.444;7.758;2023-05-01T20:45:09;17.00;46.90
79571;DHT22;69034;49.444;7.758;2023-05-01T20:49:10;16.90;47.30
79571;DHT22;69034;49.444;7.758;2023-05-01T20:53:11;16.80;47.60
79571;DHT22;69034;49.444;7.758;2023-05-01T20:57:13;16.70;47.80
79571;DHT22;69034;49.444;7.758;2023-05-01T21:01:15;16.60;48.10
79571;DHT22;69034;49.444;7.758;2023-05-01T21:05:17;16.50;48.30
79571;DHT22;69034;49.444;7.758;2023-05-01T21:09:18;16.40;48.70
79571;DHT22;69034;49.444;7.758;2023-05-01T21:13:19;16.30;49.00
79571;DHT22;69034;49.444;7.758;2023-05-01T21:17:20;16.20;49.10
79571;DHT22;69034;49.444;7.758;2023-05-01T21:21:21;16.10;49.50
79571;DHT22;69034;49.444;7.758;2023-05-01T21:25:25;16.10;49.80
79571;DHT22;69034;49.444;7.758;2023-05-01T21:29:27;16.20;49.80
79571;DHT22;69034;49.444;7.758;2023-05-01T21:33:27;16.20;49.70
79571;DHT22;69034;49.444;7.758;2023-05-01T21:37:29;16.30;49.60
79571;DHT22;69034;49.444;7.758;2023-05-01T21:41:29;16.30;49.70
79571;DHT22;69034;49.444;7.758;2023-05-01T21:45:30;16.40;49.50
79571;DHT22;69034;49.444;7.758;2023-05-01T21:49:31;16.40;49.30
79571;DHT22;69034;49.444;7.758;2023-05-01T21:53:33;16.30;49.50
79571;DHT22;69034;49.444;7.758;2023-05-01T21:57:35;16.30;49.80
79571;DHT22;69034;49.444;7.758;2023-05-01T22:01:38;16.20;49.90
79571;DHT22;69034;49.444;7.758;2023-05-01T22:05:40;16.10;50.10
79571;DHT22;69034;49.444;7.758;2023-05-01T22:09:41;15.90;50.40
79571;DHT22;69034;49.444;7.758;2023-05-01T22:13:42;15.80;50.90
79571;DHT22;69034;49.444;7.758;2023-05-01T22:17:43;15.60;51.30
79571;DHT22;69034;49.444;7.758;2023-05-01T22:21:44;15.50;51.30
79571;DHT22;69034;49.444;7.758;2023-05-01T22:25:44;15.40;51.20
79571;DHT22;69034;49.444;7.758;2023-05-01T22:29:45;15.40;51.20
79571;DHT22;69034;49.444;7.758;2023-05-01T22:33:46;15.30;51.20
79571;DHT22;69034;49.444;7.758;2023-05-01T22:37:47;15.20;51.10
79571;DHT22;69034;49.444;7.758;2023-05-01T22:41:47;15.10;51.20
79571;DHT22;69034;49.444;7.758;2023-05-01T22:45:48;15.00;51.20
79571;DHT22;69034;49.444;7.758;2023-05-01T22:49:49;14.90;51.30
79571;DHT22;69034;49.444;7.758;2023-05-01T22:53:50;14.80;51.30
79571;DHT22;69034;49.444;7.758;2023-05-01T22:57:50;14.80;51.30
79571;DHT22;69034;49.444;7.758;2023-05-01T23:01:51;14.70;51.40
79571;DHT22;69034;49.444;7.758;2023-05-01T23:05:52;14.60;51.50
79571;DHT22;69034;49.444;7.758;2023-05-01T23:09:54;14.60;51.60
79571;DHT22;69034;49.444;7.758;2023-05-01T23:13:55;14.50;51.90
79571;DHT22;69034;49.444;7.758;2023-05-01T23:17:56;14.40;51.90
79571;DHT22;69034;49.444;7.758;2023-05-01T23:22:07;14.40;52.00
79571;DHT22;69034;49.444;7.758;2023-05-01T23:30:21;14.20;52.30
79571;DHT22;69034;49.444;7.758;2023-05-01T23:34:22;14.20;52.30
79571;DHT22;69034;49.444;7.758;2023-05-01T23:38:22;14.10;52.40
79571;DHT22;69034;49.444;7.758;2023-05-01T23:42:23;14.00;52.50
79571;DHT22;69034;49.444;7.758;2023-05-01T23:46:24;14.00;52.80
79571;DHT22;69034;49.444;7.758;2023-05-01T23:50:25;14.10;53.00
79571;DHT22;69034;49.444;7.758;2023-05-01T23:54:25;14.10;53.10
79571;DHT22;69034;49.444;7.758;2023-05-01T23:58:26;14.20;53.20
